Skip Navigation Links
NOAA logo - Click to go to the NOAA homepage
NOAA's National Weather Service
Alaska Aviation Weather Unit
  NWS logo - Click to go to the NWS homepage
Left Navbar Graphic     22 AKDT = 06 GMT

   
NOAA is celebrating 200 years of science, service, and stewardship. Visit the NOAA 200th celebration Web site to learn more.
USA.gov is the U.S. Government's official Web portal to all Federal, state and local government Web resources and services.
Facebook
NWS on Facebook

Important Change Regarding the AAWU Web Presence

 

Over the last several months, the AAWU has been working to navigate its webpages to a nationally supported server. Security, as well as other needs, have necessitated the change.  In the process, we have made an effort to enhance the functionality of our website, as well as some of our products. As of June 20, 2017, aawu.arh.noaa.gov will be discontinued. The new AAWU web address is weather.gov/aawu. It is now live and will run in-parallel with the old site until it is discontinued. Please send any feedback or questions regarding the new webpages to nws.ar.aawu.webauthors@noaa.gov.  Thank you for your patience during this time of transition.
AAWU Home :: Display TAF Add Bookmark
METAR PANI 280016Z AUTO 25005KT 10SM FEW033 FEW046 BKN050 07/04 A2993
     RMK AO1=

METAR PANI 280036Z AUTO 26004KT 10SM FEW100 FEW120 08/04 A2992 RMK
 AO1=

METAR PANI 280056Z AUTO 32006KT 10SM FEW046 FEW060 SCT075 09/04 A2992
     RMK AO1=

METAR PANI 280116Z AUTO 36003KT 10SM SCT034 BKN046 BKN060 08/03 A2991
     RMK AO1=

METAR PANI 280136Z AUTO 35003KT 10SM SCT032 BKN044 OVC070 09/03 A2991
     RMK AO1=

METAR PANI 280156Z AUTO 00000KT 10SM FEW035 BKN041 OVC075 09/03 A2990
     RMK AO1=

METAR PANI 280216Z AUTO 00000KT 10SM SCT037 BKN045 OVC050 09/02 A2990
     RMK AO1=

METAR PANI 280236Z AUTO 24006KT 10SM SCT035 OVC047 09/04 A2990 RMK AO1
     P0001=

METAR PANI 280256Z AUTO 31005KT 10SM BKN035 OVC049 08/04 A2990 RMK AO1
     P0002 60002 57010=

METAR PANI 280316Z AUTO 27004KT 10SM FEW030 SCT036 OVC045 08/04 A2990
     RMK AO1=

METAR PANI 280336Z AUTO 31007KT 10SM SCT045 OVC055 08/04 A2990 RMK
 AO1=

METAR PANI 280356Z AUTO 31006KT 10SM SCT045 BKN055 OVC065 08/04 A2990
     RMK AO1=

METAR PANI 280416Z AUTO 32004KT 10SM FEW045 BKN065 BKN070 08/03 A2990
     RMK AO1=

METAR PANI 280436Z AUTO 07007KT 10SM FEW033 FEW043 BKN055 08/03 A2990
     RMK AO1=

METAR PANI 280456Z AUTO 09008KT 10SM FEW036 FEW043 OVC055 08/02
 A2990 RMK AO1=

METAR PANI 280516Z AUTO 07004KT 10SM SCT055 07/02 A2990 RMK AO1=

METAR PANI 280536Z AUTO 06005KT 10SM CLR 07/02 A2990 RMK AO1=

METAR PANI 280556Z AUTO 09004KT 10SM CLR 07/02 A2990 RMK AO1 60002
 10090 20060 54000=

METAR PANI 280616Z AUTO 09005KT 10SM CLR 07/01 A2990 RMK AO1=


NOAA's National Weather Service
Alaska Aviation Weather Unit
6930 Sand Lake Road
Anchorage, AK 99502-1845
Disclaimer
Credits
Glossary
Privacy Policy
About Us
Career Opportunities
Contact AAWU Internet Services Site last modified: April, 17th 2012